Have a Safe July 4th! 

Flight Track Log - Related Links

Times and Time Zones

All times are in EST time to prevent confusion due to time zone crossing. See the FSR103 flight status page for this flight to view local times or setup timezone preferences in your user account.

Time Position Orientation Groundspeed Altitude Reporting Facility
EST Latitude Longitude Course Direction KTS MPH feet Rate Location/Type
Thu 06:43:45 PM 40.6075 -75.5275 242° Southwest 184 212 4,700  Level New York Center
Thu 06:44:45 PM 40.5933 -75.6167 258° West 220 253 7,700 3,250 Climbing New York Center
Thu 06:45:45 PM 40.5711 -75.7025 251° West 248 285 11,200 2,150 Climbing New York Center
Thu 06:46:45 PM 40.5183 -75.7669 223° Southwest 273 314 12,000 1,550 Climbing New York Center
Thu 06:47:45 PM 40.4542 -75.8525 225° Southwest 315 362 14,300 2,300 Climbing New York Center
Thu 06:48:00 PM 40.0992 -75.7304 237° Southwest  Level Estimated
Thu 06:48:45 PM 40.3900 -75.9403 226° Southwest 334 384 16,600  Level New York Center
Thu 06:49:45 PM 40.3128 -76.0353 223° Southwest 342 394 19,900 3,150 Climbing New York Center
Thu 06:50:45 PM 40.2667 -76.1353 239° Southwest 340 391 22,900 2,900 Climbing New York Center
Thu 06:51:45 PM 40.1861 -76.2106 216° Southwest 340 391 25,700 2,650 Climbing New York Center
Thu 06:52:45 PM 40.1117 -76.2861 218° Southwest 354 407 28,200 2,300 Climbing New York Center
Thu 06:53:45 PM 40.0289 -76.3608 215° Southwest 367 422 30,300 2,025 Climbing New York Center
Thu 06:55:22 PM 39.8833 -76.4919 215° Southwest 368 423 33,500 1,885 Climbing Washington Center
Thu 06:56:21 PM 39.8056 -76.5611 214° Southwest 375 432 35,200 1,563 Climbing Washington Center
Thu 06:57:21 PM 39.7236 -76.6356 215° Southwest 375 432 36,600 1,289 Climbing Washington Center
Thu 06:58:22 PM 39.6439 -76.7125 217° Southwest 370 426 37,800 1,082 Climbing Washington Center
Thu 06:59:23 PM 39.5578 -76.7894 215° Southwest 370 426 38,800 857 Climbing Washington Center
Thu 07:00:21 PM 39.4736 -76.8658 215° Southwest 370 426 39,500 605 Climbing Washington Center
Thu 07:01:22 PM 39.3894 -76.9422 215° Southwest 370 426 40,000 248 Climbing Washington Center
Thu 07:02:22 PM 39.3008 -77.0211 215° Southwest 376 433 40,000  Level Washington Center
Thu 07:03:23 PM 39.2144 -77.0997 215° Southwest 387 445 40,000  Level Washington Center
Thu 07:04:21 PM 39.1239 -77.1808 215° Southwest 387 445 40,000  Level Washington Center
Thu 07:05:22 PM 39.0331 -77.2617 215° Southwest 393 452 40,000  Level Washington Center
Thu 07:06:24 PM 38.9444 -77.3397 214° Southwest 393 452 40,000  Level Washington Center
Thu 07:07:21 PM 38.8578 -77.4178 215° Southwest 393 452 40,000  Level Washington Center
Thu 07:08:22 PM 38.7692 -77.4928 213° Southwest 393 452 40,000  Level Washington Center
Thu 07:09:22 PM 38.6739 -77.5781 215° Southwest 393 452 40,000  Level Washington Center
Thu 07:10:23 PM 38.5892 -77.6528 215° Southwest 387 445 40,000  Level Washington Center
Thu 07:11:21 PM 38.5003 -77.7300 214° Southwest 387 445 40,000  Level Washington Center
Thu 07:12:22 PM 38.4178 -77.8044 215° Southwest 387 445 40,000  Level Washington Center
Thu 07:13:23 PM 38.3267 -77.8839 214° Southwest 387 445 40,000  Level Washington Center
Thu 07:14:21 PM 38.2394 -77.9603 215° Southwest 392 451 40,000  Level Washington Center
Thu 07:15:22 PM 38.1525 -78.0369 215° Southwest 387 445 40,000  Level Washington Center
Thu 07:16:22 PM 38.0633 -78.1106 213° Southwest 387 445 40,000  Level Washington Center
Thu 07:17:24 PM 37.9869 -78.1764 214° Southwest 387 445 40,000  Level Washington Center
Thu 07:18:21 PM 37.9100 -78.2581 220° Southwest 382 440 40,000  Level Washington Center
Thu 07:19:21 PM 37.8228 -78.3392 216° Southwest 377 434 40,000  Level Washington Center
Thu 07:20:22 PM 37.7417 -78.4175 217° Southwest 377 434 40,000  Level Washington Center
Thu 07:21:23 PM 37.6478 -78.5031 216° Southwest 377 434 40,000  Level Washington Center
Thu 07:22:23 PM 37.5644 -78.5811 217° Southwest 377 434 40,000  Level Washington Center
Thu 07:23:21 PM 37.4811 -78.6617 218° Southwest 377 434 40,000  Level Washington Center
Thu 07:24:22 PM 37.3958 -78.7367 215° Southwest 377 434 40,000  Level Washington Center
Thu 07:25:22 PM 37.3144 -78.8169 218° Southwest 377 434 40,000  Level Washington Center
Thu 07:26:23 PM 37.2289 -78.8917 215° Southwest 377 434 40,000  Level Washington Center
Thu 07:27:24 PM 37.1539 -78.9639 218° Southwest 377 434 40,000  Level Washington Center
Thu 07:28:22 PM 37.0725 -79.0411 217° Southwest 377 434 40,000  Level Washington Center
Thu 07:29:23 PM 36.9889 -79.1178 216° Southwest 377 434 40,000  Level Washington Center
Thu 07:30:21 PM 36.9053 -79.1919 215° Southwest 372 428 40,000  Level Washington Center
Thu 07:31:23 PM 36.8214 -79.2686 216° Southwest 372 428 40,000  Level Washington Center
Thu 07:32:23 PM 36.7314 -79.3525 217° Southwest 372 428 40,000  Level Washington Center
Thu 07:33:21 PM 36.6517 -79.4261 217° Southwest 372 428 40,000  Level Washington Center
Thu 07:34:22 PM 36.5681 -79.5022 216° Southwest 372 428 40,000  Level Washington Center
Thu 07:35:22 PM 36.4861 -79.5783 217° Southwest 372 428 40,000  Level Washington Center
Thu 07:37:51 PM 36.2800 -79.7608 216° Southwest 366 421 40,000  Level Atlanta Center
Thu 07:38:51 PM 36.1969 -79.8347 216° Southwest 366 421 40,000  Level Atlanta Center
Thu 07:39:51 PM 36.1139 -79.9083 216° Southwest 373 429 40,000  Level Atlanta Center
Thu 07:40:51 PM 36.0331 -79.9817 216° Southwest 373 429 40,000  Level Atlanta Center
Thu 07:41:51 PM 35.9425 -80.0247 201° Southwest 373 429 40,000  Level Atlanta Center
Thu 07:42:51 PM 35.8422 -80.0783 203° Southwest 383 441 40,000  Level Atlanta Center
Thu 07:43:51 PM 35.7456 -80.1242 201° Southwest 388 447 40,000  Level Atlanta Center
Thu 07:44:51 PM 35.6469 -80.1772 204° Southwest 388 447 40,000  Level Atlanta Center
Thu 07:45:51 PM 35.5486 -80.2278 203° Southwest 388 447 40,000  Level Atlanta Center
Thu 07:46:51 PM 35.4497 -80.2758 202° Southwest 388 447 40,000  Level Atlanta Center
Thu 07:47:51 PM 35.3511 -80.3261 203° Southwest 388 447 40,000  Level Atlanta Center
Thu 07:48:51 PM 35.2525 -80.3739 202° Southwest 393 452 40,000  Level Atlanta Center
Thu 07:50:42 PM 35.0586 -80.4708 202° Southwest 385 443 40,000  Level Jacksonville Center
Thu 07:51:42 PM 34.9697 -80.5164 203° Southwest 385 443 40,000  Level Jacksonville Center
Thu 07:52:42 PM 34.8725 -80.5647 202° Southwest 385 443 40,000 -50 Level Jacksonville Center
Thu 07:53:42 PM 34.7775 -80.6078 200° South 376 433 39,900 -50 Descending Jacksonville Center
Thu 07:54:42 PM 34.6761 -80.6583 202° Southwest 376 433 39,900 50 Level Jacksonville Center
Thu 07:55:43 PM 34.5625 -80.7192 204° Southwest 387 445 40,000 50 Climbing Jacksonville Center
Thu 07:56:43 PM 34.4653 -80.7669 202° Southwest 387 445 40,000  Level Jacksonville Center
Thu 07:57:43 PM 34.3661 -80.8172 203° Southwest 387 445 40,000  Level Jacksonville Center
Thu 07:58:42 PM 34.2892 -80.8467 198° South 387 445 40,000 -50 Level Jacksonville Center
Thu 07:59:43 PM 34.1858 -80.8994 203° Southwest 387 445 39,900 -50 Descending Jacksonville Center
Thu 08:00:43 PM 34.0886 -80.9467 202° Southwest 387 445 39,900  Level Jacksonville Center
Thu 08:01:42 PM 33.9869 -80.9967 202° Southwest 387 445 39,900 50 Level Jacksonville Center
Thu 08:02:42 PM 33.8814 -81.0439 200° South 387 445 40,000 50 Climbing Jacksonville Center
Thu 08:03:43 PM 33.7819 -81.0936 203° Southwest 387 445 40,000 -50 Level Jacksonville Center
Thu 08:04:43 PM 33.6928 -81.1378 202° Southwest 387 445 39,900 -50 Descending Jacksonville Center
Thu 08:05:43 PM 33.5933 -81.1869 202° Southwest 392 451 39,900  Level Jacksonville Center
Thu 08:06:42 PM 33.4917 -81.2389 203° Southwest 392 451 39,900  Level Jacksonville Center
Thu 08:07:42 PM 33.3922 -81.2856 201° Southwest 392 451 39,900  Level Jacksonville Center
Thu 08:08:43 PM 33.2906 -81.3369 203° Southwest 392 451 39,900  Level Jacksonville Center
Thu 08:09:43 PM 33.1908 -81.3858 202° Southwest 392 451 39,900  Level Jacksonville Center
Thu 08:10:43 PM 33.0914 -81.4347 202° Southwest 392 451 39,900  Level Jacksonville Center
Thu 08:11:43 PM 32.9894 -81.4833 202° Southwest 392 451 39,900  Level Jacksonville Center
Thu 08:12:42 PM 32.8919 -81.5294 202° Southwest 392 451 39,900  Level Jacksonville Center
Thu 08:13:42 PM 32.7922 -81.5781 202° Southwest 392 451 39,900  Level Jacksonville Center
Thu 08:14:42 PM 32.6947 -81.6261 203° Southwest 392 451 39,900 50 Level Jacksonville Center
Thu 08:15:42 PM 32.5867 -81.6794 203° Southwest 387 445 40,000 50 Climbing Jacksonville Center
Thu 08:16:42 PM 32.4825 -81.7153 196° South 392 451 40,000  Level Jacksonville Center
Thu 08:17:43 PM 32.3806 -81.7314 188° South 399 459 40,000  Level Jacksonville Center
Thu 08:18:43 PM 32.2575 -81.7550 189° South 411 473 40,000  Level Jacksonville Center
Thu 08:19:42 PM 32.1469 -81.7761 189° South 411 473 40,000  Level Jacksonville Center
Thu 08:20:42 PM 32.0344 -81.7972 189° South 411 473 40,000  Level Jacksonville Center
Thu 08:21:43 PM 31.9219 -81.8156 188° South 411 473 40,000  Level Jacksonville Center
Thu 08:22:42 PM 31.8239 -81.8364 190° South 411 473 40,000  Level Jacksonville Center
Thu 08:23:43 PM 31.7008 -81.8597 189° South 411 473 40,000  Level Jacksonville Center
Thu 08:24:42 PM 31.5883 -81.8806 189° South 411 473 40,000  Level Jacksonville Center
Thu 08:25:42 PM 31.4883 -81.8961 188° South 411 473 40,000  Level Jacksonville Center
Thu 08:26:42 PM 31.3653 -81.9194 189° South 411 473 40,000 -50 Level Jacksonville Center
Thu 08:27:42 PM 31.2650 -81.9375 189° South 411 473 39,900 -50 Descending Jacksonville Center
Thu 08:28:43 PM 31.1525 -81.9581 189° South 411 473 39,900  Level Jacksonville Center
Thu 08:29:43 PM 31.0419 -81.9808 190° South 411 473 39,900  Level Jacksonville Center
Thu 08:30:43 PM 30.9294 -82.0014 189° South 411 473 39,900  Level Jacksonville Center
Thu 08:31:43 PM 30.8169 -82.0217 189° South 411 473 39,900  Level Jacksonville Center
Thu 08:32:42 PM 30.7022 -82.0422 189° South 411 473 39,900  Level Jacksonville Center
Thu 08:33:42 PM 30.5917 -82.0625 189° South 411 473 39,900  Level Jacksonville Center
Thu 08:34:43 PM 30.4686 -82.0781 186° South 411 473 39,900  Level Jacksonville Center
Thu 08:35:42 PM 30.3581 -82.0981 189° South 411 473 39,900  Level Jacksonville Center
Thu 08:36:42 PM 30.2453 -82.1183 189° South 411 473 39,900  Level Jacksonville Center
Thu 08:37:42 PM 30.1264 -82.1217 181° South 411 473 39,900  Level Jacksonville Center
Thu 08:38:42 PM 30.0053 -82.0986 171° South 427 491 39,900 -150 Level Jacksonville Center
Thu 08:39:42 PM 29.8861 -82.0756 170° South 433 498 39,600 -700 Descending Jacksonville Center
Thu 08:40:42 PM 29.7669 -82.0503 170° South 433 498 38,500 -1,000 Descending Jacksonville Center
Thu 08:41:42 PM 29.6436 -82.0250 170° South 438 504 37,600 -1,091 Descending Jacksonville Center
Thu 08:42:43 PM 29.5264 -82.0022 170° South 438 504 36,300 -1,190 Descending Jacksonville Center
Thu 08:43:43 PM 29.4094 -81.9794 170° South 438 504 35,200 -431 Descending Jacksonville Center
Thu 08:46:12 PM 29.1228 -81.9206 170° South 456 525 34,800 -545 Descending Miami Center
Thu 08:47:12 PM 29.0069 -81.8964 170° South 443 510 33,300 -1,800 Descending Miami Center
Thu 08:48:12 PM 28.8806 -81.8739 171° South 448 516 31,200 -2,000 Descending Miami Center
Thu 08:49:12 PM 28.7583 -81.8472 169° South 448 516 29,300 -1,850 Descending Miami Center
Thu 08:50:12 PM 28.6319 -81.8225 170° South 453 521 27,500 -1,200 Descending Miami Center
Thu 08:51:12 PM 28.5078 -81.7958 169° South 458 527 26,900 -500 Descending Miami Center
Thu 08:52:12 PM 28.3819 -81.7597 166° South 469 540 26,500 -1,050 Descending Miami Center
Thu 08:53:12 PM 28.2456 -81.7208 166° South 468 539 24,800 -1,300 Descending Miami Center
Thu 08:54:12 PM 28.1256 -81.6872 166° South 456 525 23,900 -1,150 Descending Miami Center
Thu 08:55:12 PM 28.0069 -81.6800 177° South 432 497 22,500 -1,450 Descending Miami Center
Thu 08:56:12 PM 27.8956 -81.7033 190° South 425 489 21,000 -1,500 Descending Miami Center
Thu 08:57:12 PM 27.7836 -81.6775 168° South 412 474 19,500 -1,550 Descending Miami Center
Thu 08:58:12 PM 27.6844 -81.6522 167° South 412 474 17,900 -1,850 Descending Miami Center
Thu 08:59:12 PM 27.5747 -81.6242 167° South 412 474 15,800 -1,900 Descending Miami Center
Thu 09:00:12 PM 27.4608 -81.5961 168° South 407 468 14,100 -1,400 Descending Miami Center
Thu 09:01:12 PM 27.3572 -81.5708 168° South 401 461 13,000 -1,100 Descending Miami Center
Thu 09:02:12 PM 27.2539 -81.5431 167° South 390 449 11,900 -1,050 Descending Miami Center
Thu 09:03:12 PM 27.1481 -81.5178 168° South 390 449 10,900 -950 Descending Miami Center
Thu 09:04:12 PM 27.0489 -81.4928 167° South 385 443 10,000 -450 Descending Miami Center
Thu 09:05:12 PM 26.9539 -81.4589 162° South 369 425 10,000  Level Miami Center
Thu 09:06:12 PM 26.8617 -81.4064 153° Southeast 368 423 10,000  Level Miami Center
Thu 09:07:12 PM 26.7622 -81.3817 167° South 370 426 10,000 -250 Level Miami Center
Thu 09:08:12 PM 26.6697 -81.3942 187° South 351 404 9,500 -1,200 Descending Miami Center
Thu 09:09:12 PM 26.5903 -81.3981 183° South 314 361 7,600 -1,800 Descending Miami Center
Thu 09:10:12 PM 26.5131 -81.4044 184° South 284 327 5,900 -1,700 Descending Miami Center
Thu 09:12:00 PM 26.3000 -81.4693 270° West  Level FlightAware Approximate
Thu 09:19:00 PM 26.1500 -81.7667 246° West  Level FlightAware Approximate
Thu 09:20:00 PM 26.1524 -81.7756 246° West  Level Estimated
Thu 09:21:00 PM 26.1524 -81.7756 246° West  Level Estimated
Thu 09:22:00 PM 26.1524 -81.7756 246° West  Level Estimated
Thu 09:23:00 PM 26.1524 -81.7756 246° West  Level Estimated
Thu 09:24:00 PM 26.1524 -81.7756 246° West  Level Estimated
Thu 09:25:00 PM 26.1524 -81.7756 246° West  Level Estimated
Thu 09:26:00 PM 26.1524 -81.7756 246° West  Level Estimated
Thu 09:27:00 PM 26.1524 -81.7756 246° West  Level Estimated
Thu 09:28:00 PM 26.1524 -81.7756 246° West  Level Estimated
Thu 09:29:00 PM 26.1524 -81.7756 246° West  Level Estimated
Thu 09:30:00 PM 26.1524 -81.7756 246° West  Level Estimated
Thu 09:31:00 PM 26.1524 -81.7756 246° West  Level Estimated
Thu 09:32:00 PM 26.1524 -81.7756 246° West  Level Estimated

Login

Don't have an account? Register now (free) for customized features, flight alerts, and more!